createdAt,value
2022-10-05T00:00:04.371Z,21.38
2022-10-05T00:00:14.373Z,21.40
2022-10-05T00:00:24.368Z,21.40
2022-10-05T00:00:34.372Z,21.38
2022-10-05T00:00:44.373Z,21.42
2022-10-05T00:00:54.367Z,21.40
2022-10-05T00:01:04.363Z,21.42
2022-10-05T00:01:14.370Z,21.42
2022-10-05T00:01:24.453Z,21.42
2022-10-05T00:01:34.446Z,21.40
2022-10-05T00:01:44.519Z,21.42
2022-10-05T00:01:54.382Z,21.42
2022-10-05T00:02:04.453Z,21.38
2022-10-05T00:02:14.438Z,21.40
2022-10-05T00:02:24.366Z,21.42
2022-10-05T00:02:34.360Z,21.42
2022-10-05T00:02:44.351Z,21.42
2022-10-05T00:02:54.382Z,21.40
2022-10-05T00:03:04.369Z,21.38
2022-10-05T00:03:14.355Z,21.40
2022-10-05T00:03:24.346Z,21.38
2022-10-05T00:03:34.350Z,21.40
2022-10-05T00:03:44.343Z,21.38
2022-10-05T00:03:54.384Z,21.40
2022-10-05T00:04:04.464Z,21.40
2022-10-05T00:04:14.387Z,21.37
2022-10-05T00:04:24.350Z,21.38
2022-10-05T00:04:34.343Z,21.42
2022-10-05T00:04:44.390Z,21.40
2022-10-05T00:04:54.403Z,21.40
2022-10-05T00:05:04.379Z,21.43
2022-10-05T00:05:14.382Z,21.38
2022-10-05T00:05:24.383Z,21.42
2022-10-05T00:05:34.410Z,21.43
2022-10-05T00:05:44.332Z,21.43
2022-10-05T00:05:54.333Z,21.42
2022-10-05T00:06:04.325Z,21.42
2022-10-05T00:06:14.331Z,21.43
2022-10-05T00:06:24.330Z,21.45
2022-10-05T00:06:34.334Z,21.42
2022-10-05T00:06:44.695Z,21.40
2022-10-05T00:06:54.326Z,21.40
2022-10-05T00:07:04.321Z,21.38
2022-10-05T00:07:14.325Z,21.42
2022-10-05T00:07:24.327Z,21.43
2022-10-05T00:07:34.333Z,21.40
2022-10-05T00:07:44.318Z,21.42
2022-10-05T00:07:54.318Z,21.45
2022-10-05T00:08:04.313Z,21.40
2022-10-05T00:08:14.333Z,21.37
2022-10-05T00:08:24.314Z,21.42
2022-10-05T00:08:34.317Z,21.37
2022-10-05T00:08:44.310Z,21.42
2022-10-05T00:08:54.318Z,21.38
2022-10-05T00:09:04.307Z,21.38
2022-10-05T00:09:14.313Z,21.42
2022-10-05T00:09:24.304Z,21.40
2022-10-05T00:09:44.305Z,21.40
2022-10-05T00:09:54.306Z,21.38
2022-10-05T00:10:04.300Z,21.38
2022-10-05T00:10:14.301Z,21.38
2022-10-05T00:10:24.297Z,21.37
2022-10-05T00:10:34.309Z,21.40
2022-10-05T00:10:44.301Z,21.40
2022-10-05T00:10:54.298Z,21.40
2022-10-05T00:11:04.293Z,21.38
2022-10-05T00:11:14.295Z,21.37
2022-10-05T00:11:24.295Z,21.37
2022-10-05T00:11:34.294Z,21.38
2022-10-05T00:11:44.317Z,21.38
2022-10-05T00:11:54.292Z,21.38
2022-10-05T00:12:04.286Z,21.36
2022-10-05T00:12:14.294Z,21.37
2022-10-05T00:12:24.289Z,21.36
2022-10-05T00:12:34.289Z,21.42
2022-10-05T00:12:44.284Z,21.40
2022-10-05T00:12:54.284Z,21.40
2022-10-05T00:13:04.281Z,21.40
2022-10-05T00:13:14.283Z,21.40
2022-10-05T00:13:24.283Z,21.40
2022-10-05T00:13:34.282Z,21.40
2022-10-05T00:13:44.273Z,21.37
2022-10-05T00:13:54.288Z,21.40
2022-10-05T00:14:04.272Z,21.38
2022-10-05T00:14:14.274Z,21.37
2022-10-05T00:14:24.277Z,21.37
2022-10-05T00:14:44.268Z,21.37
2022-10-05T00:14:54.270Z,21.36
2022-10-05T00:15:04.264Z,21.40
2022-10-05T00:15:14.268Z,21.34
2022-10-05T00:15:24.263Z,21.36
2022-10-05T00:15:34.268Z,21.37
2022-10-05T00:15:44.274Z,21.38
2022-10-05T00:15:54.264Z,21.40
2022-10-05T00:16:04.295Z,21.37
2022-10-05T00:16:14.329Z,21.37
2022-10-05T00:16:24.326Z,21.37
2022-10-05T00:16:34.356Z,21.37
2022-10-05T00:16:44.614Z,21.36
2022-10-05T00:16:54.291Z,21.38
2022-10-05T00:17:14.258Z,21.38
2022-10-05T00:17:24.252Z,21.43
2022-10-05T00:17:34.251Z,21.37
2022-10-05T00:17:44.246Z,21.38
2022-10-05T00:17:54.249Z,21.37
2022-10-05T00:18:04.246Z,21.42
2022-10-05T00:18:14.250Z,21.37
2022-10-05T00:18:24.243Z,21.36
2022-10-05T00:18:34.244Z,21.38
2022-10-05T00:18:59.140Z,21.40
2022-10-05T00:19:03.801Z,21.42
2022-10-05T00:19:13.809Z,21.37
2022-10-05T00:19:23.803Z,21.37
2022-10-05T00:19:33.806Z,21.37
2022-10-05T00:19:43.798Z,21.38
2022-10-05T00:19:53.802Z,21.38
2022-10-05T00:20:03.794Z,21.36
2022-10-05T00:20:13.815Z,21.37
2022-10-05T00:20:23.795Z,21.37
2022-10-05T00:20:33.794Z,21.36
2022-10-05T00:20:43.788Z,21.40
2022-10-05T00:20:53.795Z,21.37
2022-10-05T00:21:03.788Z,21.37
2022-10-05T00:21:13.790Z,21.36
2022-10-05T00:21:23.786Z,21.38
2022-10-05T00:21:33.789Z,21.40
2022-10-05T00:21:43.787Z,21.38
2022-10-05T00:21:53.788Z,21.38
2022-10-05T00:22:03.782Z,21.38
2022-10-05T00:22:13.789Z,21.40
2022-10-05T00:22:23.783Z,21.36
2022-10-05T00:22:33.787Z,21.38
2022-10-05T00:22:43.776Z,21.38
2022-10-05T00:22:53.781Z,21.37
2022-10-05T00:23:03.784Z,21.40
2022-10-05T00:23:13.790Z,21.37
2022-10-05T00:23:23.771Z,21.37
2022-10-05T00:23:33.776Z,21.37
2022-10-05T00:23:43.771Z,21.38
2022-10-05T00:23:53.774Z,21.37
2022-10-05T00:24:03.773Z,21.38
2022-10-05T00:24:13.769Z,21.38
2022-10-05T00:24:23.764Z,21.38
2022-10-05T00:24:33.770Z,21.37
2022-10-05T00:24:43.764Z,21.37
2022-10-05T00:24:53.769Z,21.38
2022-10-05T00:25:03.762Z,21.37
2022-10-05T00:25:13.769Z,21.42
2022-10-05T00:25:23.777Z,21.42
2022-10-05T00:25:33.761Z,21.42
2022-10-05T00:25:43.763Z,21.42
2022-10-05T00:25:53.759Z,21.40
2022-10-05T00:26:03.755Z,21.38
2022-10-05T00:26:13.758Z,21.42
2022-10-05T00:26:23.755Z,21.40
2022-10-05T00:26:33.754Z,21.40
2022-10-05T00:26:44.098Z,21.40
2022-10-05T00:26:57.796Z,21.42
2022-10-05T00:27:03.747Z,21.43
2022-10-05T00:27:13.748Z,21.42
2022-10-05T00:27:23.746Z,21.45
2022-10-05T00:27:33.745Z,21.42
2022-10-05T00:27:43.743Z,21.43
2022-10-05T00:27:53.792Z,21.40
2022-10-05T00:28:03.846Z,21.43
2022-10-05T00:28:13.761Z,21.42
2022-10-05T00:28:23.772Z,21.45
2022-10-05T00:28:33.793Z,21.43
2022-10-05T00:28:43.740Z,21.43
2022-10-05T00:28:53.739Z,21.42
2022-10-05T00:29:03.735Z,21.42
2022-10-05T00:29:13.741Z,21.43
2022-10-05T00:29:23.731Z,21.43
2022-10-05T00:29:33.734Z,21.43
2022-10-05T00:29:43.728Z,21.45
2022-10-05T00:30:03.726Z,21.45
2022-10-05T00:30:13.726Z,21.43
2022-10-05T00:30:23.729Z,21.46
2022-10-05T00:30:33.742Z,21.45
2022-10-05T00:30:43.724Z,21.45
2022-10-05T00:30:53.736Z,21.46
2022-10-05T00:31:03.723Z,21.40
2022-10-05T00:31:13.738Z,21.45
2022-10-05T00:31:23.805Z,21.42
2022-10-05T00:31:33.770Z,21.42
2022-10-05T00:31:43.823Z,21.43
2022-10-05T00:31:53.780Z,21.45
2022-10-05T00:32:03.778Z,21.45
2022-10-05T00:32:13.714Z,21.45
2022-10-05T00:32:33.713Z,21.43
2022-10-05T00:32:43.712Z,21.42
2022-10-05T00:32:58.671Z,21.45
2022-10-05T00:33:04.048Z,21.42
2022-10-05T00:33:13.712Z,21.43
2022-10-05T00:33:23.708Z,21.42
2022-10-05T00:33:33.707Z,21.46
2022-10-05T00:33:43.705Z,21.42
2022-10-05T00:33:53.703Z,21.42
2022-10-05T00:34:03.704Z,21.40
2022-10-05T00:34:13.702Z,21.45
2022-10-05T00:34:23.700Z,21.45
2022-10-05T00:34:33.701Z,21.42
2022-10-05T00:34:43.694Z,21.43
2022-10-05T00:34:53.694Z,21.43
2022-10-05T00:35:03.692Z,21.43
2022-10-05T00:35:13.707Z,21.43
2022-10-05T00:35:23.699Z,21.43
2022-10-05T00:35:33.692Z,21.43
2022-10-05T00:35:43.688Z,21.43
2022-10-05T00:35:53.689Z,21.42
2022-10-05T00:36:03.687Z,21.42
2022-10-05T00:36:13.687Z,21.42
2022-10-05T00:36:23.686Z,21.42
2022-10-05T00:36:33.697Z,21.42
2022-10-05T00:36:44.096Z,21.42
2022-10-05T00:36:53.684Z,21.40
2022-10-05T00:37:03.679Z,21.43
2022-10-05T00:37:13.680Z,21.42
2022-10-05T00:37:23.717Z,21.40
2022-10-05T00:37:33.691Z,21.42
2022-10-05T00:37:43.674Z,21.42
2022-10-05T00:37:53.680Z,21.40
2022-10-05T00:38:03.671Z,21.43
2022-10-05T00:38:13.675Z,21.40
2022-10-05T00:38:23.682Z,21.45
2022-10-05T00:38:33.670Z,21.42
2022-10-05T00:38:43.672Z,21.40
2022-10-05T00:38:53.706Z,21.46
2022-10-05T00:39:03.672Z,21.45
2022-10-05T00:39:13.665Z,21.45
2022-10-05T00:39:23.669Z,21.43
2022-10-05T00:39:33.662Z,21.42
2022-10-05T00:39:43.671Z,21.43
2022-10-05T00:40:03.664Z,21.43
2022-10-05T00:40:13.661Z,21.45
2022-10-05T00:40:23.660Z,21.43
2022-10-05T00:40:33.658Z,21.40
2022-10-05T00:40:43.656Z,21.42
2022-10-05T00:40:53.653Z,21.43
2022-10-05T00:41:03.653Z,21.43
2022-10-05T00:41:13.649Z,21.40
2022-10-05T00:41:23.669Z,21.42
2022-10-05T00:41:33.650Z,21.42
2022-10-05T00:41:43.650Z,21.43
2022-10-05T00:41:53.644Z,21.42
2022-10-05T00:42:03.645Z,21.45
2022-10-05T00:42:13.643Z,21.43
2022-10-05T00:42:23.645Z,21.45
2022-10-05T00:42:33.641Z,21.45
2022-10-05T00:42:43.644Z,21.45
2022-10-05T00:42:53.641Z,21.46
2022-10-05T00:43:03.645Z,21.42
2022-10-05T00:43:13.638Z,21.48
2022-10-05T00:43:23.638Z,21.43
2022-10-05T00:43:33.635Z,21.43
2022-10-05T00:43:43.637Z,21.43
2022-10-05T00:43:53.632Z,21.42
2022-10-05T00:44:03.645Z,21.43
2022-10-05T00:44:13.630Z,21.46
2022-10-05T00:44:23.634Z,21.43
2022-10-05T00:44:33.634Z,21.43
2022-10-05T00:44:43.632Z,21.42
2022-10-05T00:44:53.624Z,21.45
2022-10-05T00:45:03.632Z,21.43
2022-10-05T00:45:13.621Z,21.45
2022-10-05T00:45:33.669Z,21.45
2022-10-05T00:45:43.678Z,21.42
2022-10-05T00:45:53.660Z,21.45
2022-10-05T00:46:03.688Z,21.42
2022-10-05T00:46:13.671Z,21.40
2022-10-05T00:46:23.724Z,21.42
2022-10-05T00:46:33.627Z,21.42
2022-10-05T00:46:44.001Z,21.40
2022-10-05T00:46:53.612Z,21.43
2022-10-05T00:47:03.627Z,21.43
2022-10-05T00:47:13.608Z,21.42
2022-10-05T00:47:23.610Z,21.43
2022-10-05T00:47:33.604Z,21.43
2022-10-05T00:47:43.608Z,21.42
2022-10-05T00:47:53.605Z,21.43
2022-10-05T00:48:03.604Z,21.42
2022-10-05T00:48:13.609Z,21.43
2022-10-05T00:48:23.606Z,21.45
2022-10-05T00:48:33.600Z,21.42
2022-10-05T00:48:43.612Z,21.43
2022-10-05T00:48:53.599Z,21.42
2022-10-05T00:49:03.597Z,21.43
2022-10-05T00:49:13.596Z,21.43
2022-10-05T00:49:23.597Z,21.42
2022-10-05T00:49:33.595Z,21.43
2022-10-05T00:49:43.594Z,21.43
2022-10-05T00:49:53.589Z,21.42
2022-10-05T00:50:03.591Z,21.42
2022-10-05T00:50:13.593Z,21.42
2022-10-05T00:50:23.594Z,21.42
2022-10-05T00:50:33.587Z,21.42
2022-10-05T00:50:43.590Z,21.45
2022-10-05T00:50:53.583Z,21.43
2022-10-05T00:51:13.579Z,21.40
2022-10-05T00:51:23.587Z,21.40
2022-10-05T00:51:33.582Z,21.43
2022-10-05T00:51:43.580Z,21.45
2022-10-05T00:51:53.597Z,21.43
2022-10-05T00:52:03.578Z,21.42
2022-10-05T00:52:13.575Z,21.42
2022-10-05T00:52:23.580Z,21.43
2022-10-05T00:52:33.573Z,21.43
2022-10-05T00:52:43.580Z,21.40
2022-10-05T00:52:53.570Z,21.42
2022-10-05T00:53:03.570Z,21.43
2022-10-05T00:53:13.567Z,21.42
2022-10-05T00:53:23.570Z,21.42
2022-10-05T00:53:33.564Z,21.43
2022-10-05T00:53:43.565Z,21.40
2022-10-05T00:53:53.566Z,21.43
2022-10-05T00:54:03.564Z,21.43
2022-10-05T00:54:18.052Z,21.43
2022-10-05T00:54:23.651Z,21.43
2022-10-05T00:54:33.560Z,21.42
2022-10-05T00:54:43.561Z,21.42
2022-10-05T00:54:53.556Z,21.38
2022-10-05T00:55:03.562Z,21.42
2022-10-05T00:55:13.554Z,21.43
2022-10-05T00:55:23.553Z,21.43
2022-10-05T00:55:33.551Z,21.42
2022-10-05T00:55:43.552Z,21.43
2022-10-05T00:55:53.545Z,21.43
2022-10-05T00:56:03.552Z,21.43
2022-10-05T00:56:13.551Z,21.40
2022-10-05T00:56:23.549Z,21.42
2022-10-05T00:56:33.544Z,21.42
2022-10-05T00:56:44.001Z,21.40
2022-10-05T00:56:53.542Z,21.43
2022-10-05T00:57:13.540Z,21.40
2022-10-05T00:57:23.539Z,21.43
2022-10-05T00:57:33.543Z,21.40
2022-10-05T00:57:43.538Z,21.43
2022-10-05T00:57:53.536Z,21.43
2022-10-05T00:58:03.538Z,21.42
2022-10-05T00:58:13.532Z,21.42
2022-10-05T00:58:23.532Z,21.38
2022-10-05T00:58:33.534Z,21.42
2022-10-05T00:58:43.546Z,21.42
2022-10-05T00:58:53.529Z,21.42
2022-10-05T00:59:03.540Z,21.38
2022-10-05T00:59:13.527Z,21.40
2022-10-05T00:59:23.529Z,21.42
2022-10-05T00:59:33.572Z,21.46
2022-10-05T00:59:43.527Z,21.40
2022-10-05T01:00:03.526Z,21.43
2022-10-05T01:00:13.530Z,21.42
2022-10-05T01:00:23.536Z,21.45
2022-10-05T01:00:33.518Z,21.43
2022-10-05T01:00:43.519Z,21.43
2022-10-05T01:00:53.602Z,21.42
2022-10-05T01:01:03.582Z,21.43
2022-10-05T01:01:13.547Z,21.43
2022-10-05T01:01:23.597Z,21.38
2022-10-05T01:01:33.557Z,21.42
2022-10-05T01:01:43.511Z,21.40
2022-10-05T01:01:53.521Z,21.42
2022-10-05T01:02:03.529Z,21.42
2022-10-05T01:02:13.571Z,21.42
2022-10-05T01:02:23.593Z,21.42
2022-10-05T01:02:36.966Z,21.40
2022-10-05T01:02:43.539Z,21.40
2022-10-05T01:02:53.596Z,21.40
2022-10-05T01:03:03.503Z,21.45
2022-10-05T01:03:13.506Z,21.43
2022-10-05T01:03:23.502Z,21.42
2022-10-05T01:03:33.497Z,21.42
2022-10-05T01:03:43.513Z,21.42
2022-10-05T01:03:53.493Z,21.40
2022-10-05T01:04:03.497Z,21.43
2022-10-05T01:04:13.494Z,21.42
2022-10-05T01:04:23.505Z,21.42
2022-10-05T01:04:33.487Z,21.42
2022-10-05T01:04:43.489Z,21.42
2022-10-05T01:04:53.490Z,21.43
2022-10-05T01:05:03.487Z,21.40
2022-10-05T01:05:13.483Z,21.43
2022-10-05T01:05:23.503Z,21.43
2022-10-05T01:05:33.485Z,21.42
2022-10-05T01:05:43.484Z,21.40
2022-10-05T01:05:53.482Z,21.42
2022-10-05T01:06:03.480Z,21.40
2022-10-05T01:06:13.477Z,21.43
2022-10-05T01:06:23.490Z,21.40
2022-10-05T01:06:33.475Z,21.42
2022-10-05T01:06:43.909Z,21.40
2022-10-05T01:06:53.472Z,21.40
2022-10-05T01:07:03.476Z,21.42
2022-10-05T01:07:13.473Z,21.38
2022-10-05T01:07:23.478Z,21.43
2022-10-05T01:07:33.469Z,21.40
2022-10-05T01:07:43.469Z,21.40
2022-10-05T01:07:53.473Z,21.42
2022-10-05T01:08:03.481Z,21.40
2022-10-05T01:08:13.464Z,21.40
2022-10-05T01:08:23.467Z,21.42
2022-10-05T01:08:33.462Z,21.40
2022-10-05T01:08:43.463Z,21.40
2022-10-05T01:08:53.470Z,21.42
2022-10-05T01:09:03.467Z,21.40
2022-10-05T01:09:13.457Z,21.42
2022-10-05T01:09:23.475Z,21.40
2022-10-05T01:09:33.457Z,21.40
2022-10-05T01:09:43.458Z,21.42
2022-10-05T01:09:53.456Z,21.40
2022-10-05T01:10:03.456Z,21.40
2022-10-05T01:10:13.451Z,21.40
2022-10-05T01:10:23.451Z,21.43
2022-10-05T01:10:33.448Z,21.42
2022-10-05T01:10:43.450Z,21.40
2022-10-05T01:10:53.447Z,21.42
2022-10-05T01:11:03.446Z,21.40
2022-10-05T01:11:13.444Z,21.40
2022-10-05T01:11:23.446Z,21.42
2022-10-05T01:11:33.442Z,21.38
2022-10-05T01:11:43.446Z,21.40
2022-10-05T01:11:53.446Z,21.40
2022-10-05T01:12:03.440Z,21.42
2022-10-05T01:12:13.438Z,21.43
2022-10-05T01:12:23.447Z,21.37
2022-10-05T01:12:33.432Z,21.38
2022-10-05T01:12:43.438Z,21.42
2022-10-05T01:12:53.430Z,21.42
2022-10-05T01:13:03.434Z,21.40
2022-10-05T01:13:13.428Z,21.42
2022-10-05T01:13:23.430Z,21.40
2022-10-05T01:13:33.424Z,21.38
2022-10-05T01:13:43.426Z,21.38
2022-10-05T01:13:53.424Z,21.37
2022-10-05T01:14:03.427Z,21.38
2022-10-05T01:14:13.424Z,21.40
2022-10-05T01:14:23.423Z,21.38
2022-10-05T01:14:33.442Z,21.42
2022-10-05T01:14:43.424Z,21.38
2022-10-05T01:14:53.438Z,21.36
2022-10-05T01:15:03.421Z,21.38
2022-10-05T01:15:13.414Z,21.40
2022-10-05T01:15:23.420Z,21.37
2022-10-05T01:15:33.414Z,21.38
2022-10-05T01:15:43.414Z,21.40
2022-10-05T01:15:53.409Z,21.40
2022-10-05T01:16:03.478Z,21.42
2022-10-05T01:16:13.483Z,21.40
2022-10-05T01:16:23.481Z,21.40
2022-10-05T01:16:33.501Z,21.38
2022-10-05T01:16:43.746Z,21.37
2022-10-05T01:16:53.500Z,21.40
2022-10-05T01:17:03.444Z,21.38
2022-10-05T01:17:13.402Z,21.42
2022-10-05T01:17:23.402Z,21.38
2022-10-05T01:17:33.398Z,21.43
2022-10-05T01:17:43.404Z,21.38
2022-10-05T01:17:53.397Z,21.38
2022-10-05T01:18:03.399Z,21.40
2022-10-05T01:18:13.398Z,21.38
2022-10-05T01:18:23.401Z,21.37
2022-10-05T01:18:33.392Z,21.40
2022-10-05T01:18:43.395Z,21.40
2022-10-05T01:18:53.389Z,21.37
2022-10-05T01:19:03.390Z,21.40
2022-10-05T01:19:13.387Z,21.38
2022-10-05T01:19:33.385Z,21.38
2022-10-05T01:19:43.401Z,21.38
2022-10-05T01:19:53.392Z,21.37
2022-10-05T01:20:03.387Z,21.42
2022-10-05T01:20:13.382Z,21.38
2022-10-05T01:20:23.381Z,21.37
2022-10-05T01:20:33.375Z,21.42
2022-10-05T01:20:43.382Z,21.40
2022-10-05T01:20:53.380Z,21.38
2022-10-05T01:21:03.377Z,21.36
2022-10-05T01:21:13.379Z,21.38
2022-10-05T01:21:23.374Z,21.36
2022-10-05T01:21:33.378Z,21.37
2022-10-05T01:21:43.383Z,21.36
2022-10-05T01:21:53.373Z,21.40
2022-10-05T01:22:03.371Z,21.40
2022-10-05T01:22:13.369Z,21.36
2022-10-05T01:22:23.362Z,21.38
2022-10-05T01:22:33.369Z,21.37
2022-10-05T01:22:43.361Z,21.40
2022-10-05T01:22:53.362Z,21.40
2022-10-05T01:23:03.362Z,21.38
2022-10-05T01:23:13.362Z,21.38
2022-10-05T01:23:23.360Z,21.40
2022-10-05T01:23:33.362Z,21.38
2022-10-05T01:23:43.356Z,21.42
2022-10-05T01:23:53.359Z,21.37
2022-10-05T01:24:03.354Z,21.40
2022-10-05T01:24:13.358Z,21.37
2022-10-05T01:24:23.356Z,21.42
2022-10-05T01:24:33.352Z,21.38
2022-10-05T01:24:43.350Z,21.38
2022-10-05T01:25:03.347Z,21.37
2022-10-05T01:25:13.350Z,21.38
2022-10-05T01:25:23.346Z,21.40
2022-10-05T01:25:33.344Z,21.40
2022-10-05T01:25:43.360Z,21.38
2022-10-05T01:25:53.346Z,21.38
2022-10-05T01:26:03.341Z,21.40
2022-10-05T01:26:13.344Z,21.42
2022-10-05T01:26:23.337Z,21.38
2022-10-05T01:26:33.338Z,21.38
2022-10-05T01:26:43.586Z,21.38
2022-10-05T01:26:53.338Z,21.40
2022-10-05T01:27:03.332Z,21.40
2022-10-05T01:27:13.333Z,21.42
2022-10-05T01:27:23.329Z,21.42
2022-10-05T01:27:33.334Z,21.42
2022-10-05T01:27:43.326Z,21.40
2022-10-05T01:28:03.401Z,21.43
2022-10-05T01:28:13.389Z,21.43
2022-10-05T01:28:23.523Z,21.42
2022-10-05T01:28:33.367Z,21.40
2022-10-05T01:28:43.320Z,21.40
2022-10-05T01:28:53.322Z,21.40
2022-10-05T01:29:03.318Z,21.40
2022-10-05T01:29:13.319Z,21.37
2022-10-05T01:29:23.316Z,21.38
2022-10-05T01:29:33.320Z,21.42
2022-10-05T01:29:43.315Z,21.37
2022-10-05T01:29:53.314Z,21.38
2022-10-05T01:30:03.310Z,21.37
2022-10-05T01:30:13.315Z,21.37
2022-10-05T01:30:33.312Z,21.40
2022-10-05T01:30:43.304Z,21.37
2022-10-05T01:30:53.333Z,21.40
2022-10-05T01:31:03.513Z,21.38
2022-10-05T01:31:13.352Z,21.37
2022-10-05T01:31:23.394Z,21.38
2022-10-05T01:31:33.346Z,21.38
2022-10-05T01:31:43.359Z,21.38
2022-10-05T01:31:53.330Z,21.40
2022-10-05T01:32:03.297Z,21.40
2022-10-05T01:32:13.299Z,21.42
2022-10-05T01:32:23.292Z,21.40
2022-10-05T01:32:33.298Z,21.40
2022-10-05T01:32:43.291Z,21.38
2022-10-05T01:32:53.295Z,21.40
2022-10-05T01:33:03.289Z,21.40
2022-10-05T01:33:13.302Z,21.37
2022-10-05T01:33:33.290Z,21.40
2022-10-05T01:33:43.285Z,21.40
2022-10-05T01:33:53.290Z,21.37
2022-10-05T01:34:05.788Z,21.37
2022-10-05T01:34:13.662Z,21.37
2022-10-05T01:34:23.280Z,21.38
2022-10-05T01:34:33.284Z,21.38
2022-10-05T01:34:43.279Z,21.37
2022-10-05T01:34:53.281Z,21.37
2022-10-05T01:35:03.286Z,21.38
2022-10-05T01:35:13.278Z,21.37
2022-10-05T01:35:23.275Z,21.37
2022-10-05T01:35:33.280Z,21.38
2022-10-05T01:35:43.273Z,21.40
2022-10-05T01:35:53.278Z,21.37
2022-10-05T01:36:03.290Z,21.37
2022-10-05T01:36:13.271Z,21.40
2022-10-05T01:36:23.264Z,21.43
2022-10-05T01:36:33.270Z,21.40
2022-10-05T01:36:43.487Z,21.40
2022-10-05T01:36:53.268Z,21.37
2022-10-05T01:37:03.261Z,21.36
2022-10-05T01:37:13.265Z,21.37
2022-10-05T01:37:23.259Z,21.37
2022-10-05T01:37:33.261Z,21.37
2022-10-05T01:37:43.260Z,21.40
2022-10-05T01:37:53.260Z,21.40
2022-10-05T01:38:03.257Z,21.37
2022-10-05T01:38:13.256Z,21.40
2022-10-05T01:38:23.254Z,21.38
2022-10-05T01:38:33.256Z,21.37
2022-10-05T01:38:43.253Z,21.37
2022-10-05T01:38:53.254Z,21.42
2022-10-05T01:39:03.248Z,21.38
2022-10-05T01:39:13.252Z,21.38
2022-10-05T01:39:23.245Z,21.40
2022-10-05T01:39:33.249Z,21.40
2022-10-05T01:39:43.246Z,21.38
2022-10-05T01:39:53.248Z,21.40
2022-10-05T01:40:03.242Z,21.37
2022-10-05T01:40:13.243Z,21.38
2022-10-05T01:40:23.248Z,21.40
2022-10-05T01:40:33.242Z,21.38
2022-10-05T01:40:43.237Z,21.37
2022-10-05T01:40:53.249Z,21.37
2022-10-05T01:41:03.234Z,21.37
2022-10-05T01:41:13.248Z,21.38
2022-10-05T01:41:23.251Z,21.38
2022-10-05T01:41:33.237Z,21.37
2022-10-05T01:41:43.232Z,21.40
2022-10-05T01:41:53.239Z,21.38
2022-10-05T01:42:03.226Z,21.40
2022-10-05T01:42:13.229Z,21.38
2022-10-05T01:42:23.295Z,21.38
2022-10-05T01:42:33.227Z,21.40
2022-10-05T01:42:43.225Z,21.40
2022-10-05T01:42:53.233Z,21.42
2022-10-05T01:43:03.221Z,21.38
2022-10-05T01:43:13.224Z,21.38
2022-10-05T01:43:23.217Z,21.38
2022-10-05T01:43:33.220Z,21.36
2022-10-05T01:43:43.219Z,21.40
2022-10-05T01:43:53.242Z,21.40
2022-10-05T01:44:03.214Z,21.37
2022-10-05T01:44:13.226Z,21.38
2022-10-05T01:44:23.210Z,21.36
2022-10-05T01:44:33.214Z,21.37
2022-10-05T01:44:43.209Z,21.37
2022-10-05T01:44:53.211Z,21.38
2022-10-05T01:45:03.207Z,21.40
2022-10-05T01:45:13.216Z,21.36
2022-10-05T01:45:23.204Z,21.42
2022-10-05T01:45:33.246Z,21.38
2022-10-05T01:45:43.254Z,21.36
2022-10-05T01:45:53.277Z,21.38
2022-10-05T01:46:03.277Z,21.38
2022-10-05T01:46:13.262Z,21.38
2022-10-05T01:46:23.301Z,21.38
2022-10-05T01:46:33.217Z,21.37
2022-10-05T01:46:43.399Z,21.36
2022-10-05T01:46:53.202Z,21.40
2022-10-05T01:47:03.193Z,21.38
2022-10-05T01:47:13.197Z,21.38
2022-10-05T01:47:23.194Z,21.36
2022-10-05T01:47:33.195Z,21.38
2022-10-05T01:47:43.188Z,21.37
2022-10-05T01:48:03.185Z,21.37
2022-10-05T01:48:13.199Z,21.37
2022-10-05T01:48:23.196Z,21.37
2022-10-05T01:48:33.185Z,21.38
2022-10-05T01:48:43.184Z,21.40
2022-10-05T01:48:53.182Z,21.40
2022-10-05T01:49:03.179Z,21.38
2022-10-05T01:49:13.179Z,21.37
2022-10-05T01:49:23.173Z,21.37
2022-10-05T01:49:33.183Z,21.38
2022-10-05T01:49:43.176Z,21.38
2022-10-05T01:49:53.176Z,21.38
2022-10-05T01:50:03.175Z,21.38
2022-10-05T01:50:13.177Z,21.36
2022-10-05T01:50:23.172Z,21.40
2022-10-05T01:50:33.173Z,21.36
2022-10-05T01:50:43.168Z,21.37
2022-10-05T01:51:03.168Z,21.37
2022-10-05T01:51:13.167Z,21.36
2022-10-05T01:51:23.163Z,21.38
2022-10-05T01:51:33.166Z,21.37
2022-10-05T01:51:43.166Z,21.37
2022-10-05T01:51:53.209Z,21.38
2022-10-05T01:52:03.157Z,21.37
2022-10-05T01:52:13.161Z,21.38
2022-10-05T01:52:23.152Z,21.37
2022-10-05T01:52:33.160Z,21.37
2022-10-05T01:52:43.154Z,21.40
2022-10-05T01:52:53.159Z,21.38
2022-10-05T01:53:03.161Z,21.36
2022-10-05T01:53:13.161Z,21.37
2022-10-05T01:53:23.150Z,21.36
2022-10-05T01:53:33.153Z,21.37
2022-10-05T01:53:43.146Z,21.36
2022-10-05T01:53:53.151Z,21.37
2022-10-05T01:54:03.145Z,21.34
2022-10-05T01:54:13.155Z,21.36
2022-10-05T01:54:23.141Z,21.36
2022-10-05T01:54:33.145Z,21.40
2022-10-05T01:54:43.165Z,21.37
2022-10-05T01:54:53.141Z,21.38
2022-10-05T01:55:03.135Z,21.37
2022-10-05T01:55:13.138Z,21.36
2022-10-05T01:55:23.138Z,21.38
2022-10-05T01:55:33.134Z,21.36
2022-10-05T01:55:43.133Z,21.36
2022-10-05T01:55:53.134Z,21.36
2022-10-05T01:56:03.131Z,21.36
2022-10-05T01:56:13.133Z,21.37
2022-10-05T01:56:23.127Z,21.36
2022-10-05T01:56:33.129Z,21.36
2022-10-05T01:56:43.483Z,21.36
2022-10-05T01:56:53.126Z,21.36
2022-10-05T01:57:03.121Z,21.37
2022-10-05T01:57:13.125Z,21.37
2022-10-05T01:57:23.120Z,21.37
2022-10-05T01:57:33.127Z,21.38
2022-10-05T01:57:43.117Z,21.37
2022-10-05T01:57:53.120Z,21.38
2022-10-05T01:58:03.115Z,21.40
2022-10-05T01:58:13.117Z,21.37
2022-10-05T01:58:23.112Z,21.37
2022-10-05T01:58:33.115Z,21.36
2022-10-05T01:58:43.113Z,21.36
2022-10-05T01:58:53.118Z,21.37
2022-10-05T01:59:03.115Z,21.36
2022-10-05T01:59:13.110Z,21.34
2022-10-05T01:59:23.107Z,21.36
2022-10-05T01:59:33.107Z,21.37
2022-10-05T01:59:43.105Z,21.36
2022-10-05T01:59:53.124Z,21.36
2022-10-05T02:00:03.103Z,21.38
2022-10-05T02:00:13.102Z,21.37
2022-10-05T02:00:23.101Z,21.37
2022-10-05T02:00:33.103Z,21.37
2022-10-05T02:00:43.141Z,21.34
2022-10-05T02:00:53.179Z,21.36
2022-10-05T02:01:03.161Z,21.36
2022-10-05T02:01:13.164Z,21.38
2022-10-05T02:01:23.167Z,21.37
2022-10-05T02:01:33.130Z,21.34
2022-10-05T02:01:43.091Z,21.34
2022-10-05T02:01:53.184Z,21.37
2022-10-05T02:02:13.176Z,21.36
2022-10-05T02:02:23.154Z,21.36
2022-10-05T02:02:33.139Z,21.34
2022-10-05T02:02:43.152Z,21.36
2022-10-05T02:02:53.083Z,21.36
2022-10-05T02:03:03.083Z,21.36
2022-10-05T02:03:13.083Z,21.34
2022-10-05T02:03:23.078Z,21.38
2022-10-05T02:03:33.081Z,21.37
2022-10-05T02:03:43.076Z,21.37
2022-10-05T02:03:53.078Z,21.37
2022-10-05T02:04:03.079Z,21.34
2022-10-05T02:04:24.429Z,21.34
2022-10-05T02:05:01.595Z,21.38
2022-10-05T02:05:07.585Z,21.36
2022-10-05T02:05:15.489Z,21.36
2022-10-05T02:05:22.281Z,21.37
2022-10-05T02:05:32.258Z,21.36
2022-10-05T02:05:42.254Z,21.34
2022-10-05T02:05:52.255Z,21.36
2022-10-05T02:06:02.254Z,21.37
2022-10-05T02:06:12.256Z,21.37
2022-10-05T02:06:22.255Z,21.37
2022-10-05T02:06:32.252Z,21.38
2022-10-05T02:06:42.249Z,21.34
2022-10-05T02:06:52.249Z,21.36
2022-10-05T02:07:02.245Z,21.34
2022-10-05T02:07:12.248Z,21.34
2022-10-05T02:07:22.245Z,21.36
2022-10-05T02:07:32.246Z,21.36
2022-10-05T02:07:42.241Z,21.37
2022-10-05T02:07:52.257Z,21.36
2022-10-05T02:08:02.240Z,21.36
2022-10-05T02:08:12.240Z,21.37
2022-10-05T02:08:22.237Z,21.37
2022-10-05T02:08:32.244Z,21.36
2022-10-05T02:08:42.235Z,21.38
2022-10-05T02:08:52.238Z,21.38
2022-10-05T02:09:02.234Z,21.37
2022-10-05T02:09:12.232Z,21.36
2022-10-05T02:09:22.235Z,21.36
2022-10-05T02:09:32.233Z,21.37
2022-10-05T02:09:42.225Z,21.38
2022-10-05T02:09:52.232Z,21.36
2022-10-05T02:10:02.239Z,21.36
2022-10-05T02:10:12.228Z,21.37
2022-10-05T02:10:22.232Z,21.36
2022-10-05T02:10:32.249Z,21.37
2022-10-05T02:10:42.221Z,21.36
2022-10-05T02:10:52.238Z,21.37
2022-10-05T02:11:02.219Z,21.36
2022-10-05T02:11:12.221Z,21.34
2022-10-05T02:11:22.216Z,21.36
2022-10-05T02:11:32.218Z,21.36
2022-10-05T02:11:42.211Z,21.34
2022-10-05T02:11:52.216Z,21.34
2022-10-05T02:12:02.210Z,21.36
2022-10-05T02:12:12.213Z,21.34
2022-10-05T02:12:22.208Z,21.34